CheckWX is a tool to help pilots better visualize weather data.  It is not intended as a substitute for an official pre-flight weather briefing.

17:29:41 UTC

ETHF TAF
Fritzlar Airport
Fritzlar, Germany
TAF AMD ETHF 181432Z 1814/1823 17005KT 9999 NSW SCT050 BKN300 PROB30 1815/1823 17010G20KT 7000 SHRA BKN040CB CANCEL 1500Z

Jun-18@
14:00 UTC

Jun-18 @ 14:00 UTC

Jun-18@
23:00 UTC

Jun-18 @ 23:00 UTC

TAF AMD ETHF 181432Z 1814/1823 17005KT 9999 NSW SCT050 BKN300
Wind
  • 170° at 5 KTS
Conditions
No significant weather
Cloud Levels
  • Scattered at 5,000' AGL
  • Broken at 30,000' AGL

Jun-18@
15:00 UTC

Jun-18 @ 15:00 UTC

Jun-18@
23:00 UTC

Jun-18 @ 23:00 UTC

PROB30 1815/1823 17010G20KT 7000 SHRA BKN040CB CANCEL 1500Z

Probable - 30% Likelihood

Probable - 30% Likelihood during this time.

Wind
  • 170° at 10 KTS
  • {Gusting to 20 KTS
Conditions
Rain
Cloud Levels
  • Broken at 4,000' AGL